createdAt,value
2019-04-29T00:02:24.788Z,6.73
2019-04-29T00:04:50.315Z,6.60
2019-04-29T00:07:16.146Z,7.27
2019-04-29T00:09:41.697Z,6.50
2019-04-29T00:12:07.563Z,6.90
2019-04-29T00:14:33.417Z,6.60
2019-04-29T00:17:03.719Z,6.03
2019-04-29T00:19:36.225Z,5.90
2019-04-29T00:22:01.672Z,6.93
2019-04-29T00:24:27.199Z,6.37
2019-04-29T00:26:52.720Z,6.23
2019-04-29T00:29:18.253Z,6.73
2019-04-29T00:31:44.870Z,5.77
2019-04-29T00:34:10.400Z,6.40
2019-04-29T00:36:37.828Z,6.77
2019-04-29T00:39:24.111Z,7.00
2019-04-29T00:42:08.303Z,6.73
2019-04-29T00:44:34.026Z,7.17
2019-04-29T00:46:59.651Z,7.77
2019-04-29T00:49:26.876Z,7.60
2019-04-29T00:51:52.435Z,7.10
2019-04-29T00:54:19.859Z,8.40
2019-04-29T00:56:45.383Z,6.77
2019-04-29T00:59:10.924Z,7.20
2019-04-29T01:01:36.559Z,7.27
2019-04-29T01:04:02.183Z,6.73
2019-04-29T01:06:27.829Z,6.20
2019-04-29T01:08:53.445Z,6.30
2019-04-29T01:11:19.027Z,7.07
2019-04-29T01:13:44.663Z,7.73
2019-04-29T01:16:10.225Z,7.07
2019-04-29T01:18:36.128Z,8.17
2019-04-29T01:21:01.697Z,7.77
2019-04-29T01:23:27.223Z,8.70
2019-04-29T01:25:54.668Z,10.40
2019-04-29T01:28:24.745Z,11.90
2019-04-29T01:30:51.963Z,13.30
2019-04-29T01:33:17.538Z,15.97
2019-04-29T01:35:43.105Z,15.77
2019-04-29T01:38:08.631Z,17.70
2019-04-29T01:40:48.015Z,18.97
2019-04-29T01:43:13.542Z,18.37
2019-04-29T01:45:39.222Z,19.63
2019-04-29T01:48:04.847Z,19.00
2019-04-29T01:50:30.436Z,19.00
2019-04-29T01:52:56.976Z,18.00
2019-04-29T01:55:22.503Z,20.00
2019-04-29T01:57:48.063Z,19.80
2019-04-29T02:00:13.893Z,18.03
2019-04-29T02:02:39.401Z,17.97
2019-04-29T02:05:05.143Z,16.90
2019-04-29T02:07:30.663Z,18.00
2019-04-29T02:09:58.095Z,17.70
2019-04-29T02:12:23.642Z,18.27
2019-04-29T02:14:49.163Z,18.57
2019-04-29T02:17:14.726Z,18.40
2019-04-29T02:19:40.237Z,17.80
2019-04-29T02:22:07.678Z,17.57
2019-04-29T02:24:34.127Z,17.80
2019-04-29T02:26:59.764Z,15.90
2019-04-29T02:29:25.367Z,15.57
2019-04-29T02:31:50.937Z,16.87
2019-04-29T02:34:16.499Z,15.30
2019-04-29T02:36:42.048Z,16.13
2019-04-29T02:39:28.279Z,16.13
2019-04-29T02:42:13.903Z,15.77
2019-04-29T02:44:39.452Z,13.60
2019-04-29T02:47:04.972Z,14.70
2019-04-29T02:49:30.497Z,15.50
2019-04-29T02:51:56.192Z,13.40
2019-04-29T02:54:23.713Z,12.80
2019-04-29T02:56:51.169Z,12.40
2019-04-29T02:59:18.606Z,13.67
2019-04-29T03:01:48.937Z,12.30
2019-04-29T03:04:16.365Z,12.40
2019-04-29T03:06:42.188Z,12.73
2019-04-29T03:09:07.843Z,11.73
2019-04-29T03:11:34.389Z,12.23
2019-04-29T03:14:00.222Z,12.27
2019-04-29T03:16:26.092Z,12.83
2019-04-29T03:18:57.288Z,11.77
2019-04-29T03:21:24.707Z,12.00
2019-04-29T03:23:50.281Z,11.27
2019-04-29T03:26:16.046Z,11.83
2019-04-29T03:28:41.637Z,11.50
2019-04-29T03:31:07.161Z,10.53
2019-04-29T03:33:32.789Z,12.23
2019-04-29T03:35:58.358Z,10.93
2019-04-29T03:38:24.216Z,11.70
2019-04-29T03:40:49.999Z,11.33
2019-04-29T03:43:15.860Z,11.30
2019-04-29T03:45:41.388Z,11.20
2019-04-29T03:48:07.024Z,10.57
2019-04-29T03:50:32.545Z,38.73
2019-04-29T03:52:58.223Z,14.27
2019-04-29T03:55:38.189Z,14.13
2019-04-29T03:57:51.263Z,13.53
2019-04-29T04:00:17.537Z,13.80
2019-04-29T04:02:44.988Z,16.60
2019-04-29T04:05:12.637Z,14.60
2019-04-29T04:07:45.789Z,15.70
2019-04-29T04:10:11.568Z,17.87
2019-04-29T04:12:37.130Z,17.07
2019-04-29T04:15:05.532Z,17.07
2019-04-29T04:17:33.031Z,17.03
2019-04-29T04:19:58.558Z,17.00
2019-04-29T04:22:24.230Z,17.77
2019-04-29T04:24:51.692Z,17.70
2019-04-29T04:27:17.462Z,18.23
2019-04-29T04:29:44.076Z,16.50
2019-04-29T04:32:09.609Z,18.40
2019-04-29T04:34:35.158Z,17.60
2019-04-29T04:37:01.741Z,17.77
2019-04-29T04:39:29.283Z,17.40
2019-04-29T04:41:54.987Z,17.57
2019-04-29T04:44:20.660Z,18.17
2019-04-29T04:46:46.385Z,18.00
2019-04-29T04:49:15.586Z,17.60
2019-04-29T04:51:39.422Z,18.50
2019-04-29T04:54:05.680Z,18.50
2019-04-29T04:56:31.294Z,17.33
2019-04-29T04:58:57.004Z,19.20
2019-04-29T05:01:22.615Z,19.23
2019-04-29T05:03:48.259Z,18.40
2019-04-29T05:06:13.947Z,17.87
2019-04-29T05:08:40.583Z,18.73
2019-04-29T05:11:06.432Z,18.57
2019-04-29T05:13:32.191Z,19.17
2019-04-29T05:15:58.223Z,18.83
2019-04-29T05:18:23.851Z,18.33
2019-04-29T05:20:49.850Z,20.10
2019-04-29T05:23:15.614Z,19.20
2019-04-29T05:25:41.198Z,18.57
2019-04-29T05:28:06.799Z,19.23
2019-04-29T05:30:32.454Z,19.23
2019-04-29T05:32:58.175Z,20.57
2019-04-29T05:35:44.076Z,19.77
2019-04-29T05:38:11.605Z,20.17
2019-04-29T05:40:41.708Z,19.30
2019-04-29T05:43:09.326Z,18.80
2019-04-29T05:45:48.903Z,21.67
2019-04-29T05:48:15.982Z,19.67
2019-04-29T05:50:47.580Z,22.67
2019-04-29T05:53:18.954Z,21.00
2019-04-29T05:55:44.587Z,21.30
2019-04-29T05:58:10.313Z,20.83
2019-04-29T06:00:36.034Z,20.60
2019-04-29T06:03:01.651Z,21.43
2019-04-29T06:05:27.499Z,21.37
2019-04-29T06:07:56.281Z,21.87
2019-04-29T06:10:22.873Z,22.07
2019-04-29T06:12:48.349Z,21.20
2019-04-29T06:15:14.015Z,22.43
2019-04-29T06:17:40.214Z,22.50
2019-04-29T06:20:07.220Z,21.57
2019-04-29T06:22:32.892Z,21.30
2019-04-29T06:24:58.434Z,23.20
2019-04-29T06:27:24.022Z,24.10
2019-04-29T06:29:50.893Z,22.17
2019-04-29T06:32:20.304Z,24.20
2019-04-29T06:34:43.957Z,24.73
2019-04-29T06:37:09.763Z,23.73
2019-04-29T06:39:35.380Z,24.20
2019-04-29T06:42:00.982Z,25.70
2019-04-29T06:44:27.878Z,24.40
2019-04-29T06:46:54.567Z,24.60
2019-04-29T06:49:20.917Z,24.10
2019-04-29T06:51:46.615Z,23.93
2019-04-29T06:54:12.711Z,23.47
2019-04-29T06:56:38.375Z,25.97
2019-04-29T06:59:07.545Z,25.50
2019-04-29T07:01:37.541Z,24.10
2019-04-29T07:04:01.435Z,23.13
2019-04-29T07:06:27.259Z,23.00
2019-04-29T07:08:52.887Z,23.90
2019-04-29T07:11:18.578Z,24.30
2019-04-29T07:13:46.652Z,24.10
2019-04-29T07:16:11.676Z,23.67
2019-04-29T07:18:40.407Z,24.73
2019-04-29T07:21:07.526Z,23.93
2019-04-29T07:23:32.207Z,23.00
2019-04-29T07:25:57.753Z,22.93
2019-04-29T07:28:23.263Z,21.27
2019-04-29T07:31:01.274Z,23.70
2019-04-29T07:33:22.164Z,21.50
2019-04-29T07:35:47.988Z,22.50
2019-04-29T07:38:11.872Z,21.70
2019-04-29T07:40:38.752Z,21.60
2019-04-29T07:43:07.875Z,22.37
2019-04-29T07:45:46.604Z,21.73
2019-04-29T07:48:12.131Z,20.93
2019-04-29T07:50:37.655Z,20.93
2019-04-29T07:53:03.247Z,21.43
2019-04-29T07:55:30.698Z,22.53
2019-04-29T07:57:56.424Z,22.53
2019-04-29T08:00:23.875Z,23.13
2019-04-29T08:02:49.505Z,21.83
2019-04-29T08:05:15.181Z,22.40
2019-04-29T08:07:40.917Z,23.10
2019-04-29T08:10:22.539Z,20.13
2019-04-29T08:12:34.297Z,19.83
2019-04-29T08:15:07.593Z,17.97
2019-04-29T08:17:28.948Z,16.50
2019-04-29T08:19:54.627Z,16.10
2019-04-29T08:22:22.913Z,14.10
2019-04-29T08:24:50.410Z,13.70
2019-04-29T08:27:15.127Z,15.60
2019-04-29T08:29:40.881Z,12.57
2019-04-29T08:32:06.463Z,12.30
2019-04-29T08:34:32.152Z,13.00
2019-04-29T08:36:58.801Z,12.40
2019-04-29T08:39:25.195Z,12.40
2019-04-29T08:41:51.917Z,13.63
2019-04-29T08:44:19.367Z,13.53
2019-04-29T08:46:52.025Z,13.00
2019-04-29T08:49:17.688Z,13.13
2019-04-29T08:51:43.216Z,13.60
2019-04-29T08:54:11.560Z,14.67
2019-04-29T08:56:42.463Z,13.63
2019-04-29T08:59:04.620Z,14.23
2019-04-29T09:01:34.091Z,14.57
2019-04-29T09:03:58.279Z,14.00
2019-04-29T09:06:27.691Z,15.13
2019-04-29T09:08:55.436Z,14.20
2019-04-29T09:11:19.939Z,14.40
2019-04-29T09:13:45.711Z,14.20
2019-04-29T09:16:11.266Z,14.37
2019-04-29T09:18:36.942Z,15.20
2019-04-29T09:21:04.406Z,14.30
2019-04-29T09:23:32.841Z,15.13
2019-04-29T09:26:02.856Z,14.77
2019-04-29T09:28:29.822Z,13.47
2019-04-29T09:30:55.403Z,15.23
2019-04-29T09:33:20.975Z,12.87
2019-04-29T09:35:46.782Z,12.90
2019-04-29T09:38:13.339Z,13.07
2019-04-29T09:40:59.489Z,12.60
2019-04-29T09:43:36.714Z,13.17
2019-04-29T09:46:07.065Z,12.20
2019-04-29T09:48:32.637Z,12.67
2019-04-29T09:50:58.157Z,11.60
2019-04-29T09:53:23.761Z,11.47
2019-04-29T09:55:49.996Z,10.50
2019-04-29T09:58:15.807Z,11.30
2019-04-29T10:00:43.783Z,10.80
2019-04-29T10:03:14.240Z,11.97
2019-04-29T10:05:42.683Z,11.70
2019-04-29T10:08:08.413Z,11.87
2019-04-29T10:10:37.138Z,12.47
2019-04-29T10:13:01.761Z,12.60
2019-04-29T10:15:29.238Z,13.40
2019-04-29T10:17:59.516Z,12.17
2019-04-29T10:20:27.027Z,13.37
2019-04-29T10:22:53.759Z,13.27
2019-04-29T10:25:20.330Z,13.90
2019-04-29T10:27:46.049Z,14.40
2019-04-29T10:30:13.495Z,13.00
2019-04-29T10:32:42.369Z,15.20
2019-04-29T10:35:08.696Z,16.73
2019-04-29T10:37:35.540Z,15.10
2019-04-29T10:40:10.941Z,15.20
2019-04-29T10:42:39.576Z,15.77
2019-04-29T10:45:08.003Z,17.63
2019-04-29T10:47:39.380Z,17.27
2019-04-29T10:50:24.310Z,18.60
2019-04-29T10:52:49.965Z,20.00
2019-04-29T10:55:16.027Z,20.50
2019-04-29T10:57:45.011Z,19.07
2019-04-29T11:00:12.106Z,20.37
2019-04-29T11:02:39.004Z,19.77
2019-04-29T11:05:16.593Z,19.83
2019-04-29T11:07:44.153Z,20.10
2019-04-29T11:10:25.017Z,19.50
2019-04-29T11:12:45.579Z,18.87
2019-04-29T11:15:13.986Z,19.27
2019-04-29T11:17:39.514Z,19.43
2019-04-29T11:20:06.675Z,19.10
2019-04-29T11:22:38.386Z,19.37
2019-04-29T11:25:09.820Z,19.23
2019-04-29T11:27:37.579Z,18.83
2019-04-29T11:30:05.704Z,20.20
2019-04-29T11:32:33.367Z,19.07
2019-04-29T11:35:01.280Z,19.53
2019-04-29T11:37:26.848Z,20.30
2019-04-29T11:39:53.420Z,18.90
2019-04-29T11:42:19.257Z,19.97
2019-04-29T11:44:44.835Z,20.23
2019-04-29T11:47:10.631Z,20.37
2019-04-29T11:49:38.112Z,20.60
2019-04-29T11:52:09.874Z,20.20
2019-04-29T11:54:31.568Z,20.10
2019-04-29T11:56:57.299Z,19.40
2019-04-29T11:59:41.686Z,19.57
2019-04-29T12:02:12.025Z,19.20
2019-04-29T12:04:42.497Z,20.73
2019-04-29T12:07:09.280Z,20.80
2019-04-29T12:09:35.006Z,22.23
2019-04-29T12:12:00.740Z,22.37
2019-04-29T12:14:43.316Z,21.27
2019-04-29T12:17:26.073Z,21.20
2019-04-29T12:20:02.703Z,22.60
2019-04-29T12:22:31.233Z,21.60
2019-04-29T12:24:57.444Z,22.10
2019-04-29T12:27:23.496Z,21.10
2019-04-29T12:29:59.576Z,23.33
2019-04-29T12:32:36.570Z,20.80
2019-04-29T12:35:22.071Z,23.70
2019-04-29T12:37:50.563Z,21.40
2019-04-29T12:40:24.592Z,22.17
2019-04-29T12:43:00.786Z,23.30
2019-04-29T12:45:28.683Z,23.37
2019-04-29T12:47:54.395Z,21.80
2019-04-29T12:50:21.773Z,23.23
2019-04-29T12:52:47.500Z,21.90
2019-04-29T12:55:20.078Z,21.53
2019-04-29T12:57:44.400Z,20.97
2019-04-29T13:00:11.857Z,22.37
2019-04-29T13:03:00.288Z,22.47
2019-04-29T13:05:27.941Z,22.70
2019-04-29T13:07:58.013Z,23.97
2019-04-29T13:10:25.787Z,21.97
2019-04-29T13:12:51.347Z,22.40
2019-04-29T13:15:27.446Z,23.27
2019-04-29T13:18:03.742Z,23.80
2019-04-29T13:20:25.266Z,23.77
2019-04-29T13:22:50.792Z,22.17
2019-04-29T13:25:19.695Z,22.10
2019-04-29T13:27:44.210Z,22.40
2019-04-29T13:30:15.982Z,22.30
2019-04-29T13:32:40.179Z,21.60
2019-04-29T13:35:12.092Z,22.77
2019-04-29T13:37:35.934Z,21.80
2019-04-29T13:40:05.741Z,22.17
2019-04-29T13:42:31.674Z,21.80
2019-04-29T13:45:07.831Z,19.00
2019-04-29T13:47:31.049Z,20.00
2019-04-29T13:50:18.811Z,20.73
2019-04-29T13:52:37.875Z,20.80
2019-04-29T13:55:17.032Z,20.83
2019-04-29T13:57:31.950Z,21.00
2019-04-29T14:00:09.912Z,20.87
2019-04-29T14:02:37.629Z,19.73
2019-04-29T14:05:09.307Z,19.67
2019-04-29T14:07:35.020Z,18.93
2019-04-29T14:10:00.573Z,17.90
2019-04-29T14:12:47.645Z,17.20
2019-04-29T14:14:58.020Z,15.87
2019-04-29T14:17:26.660Z,16.03
2019-04-29T14:19:48.928Z,16.40
2019-04-29T14:22:21.881Z,17.00
2019-04-29T14:24:42.090Z,17.20
2019-04-29T14:27:07.735Z,17.77
2019-04-29T14:29:33.285Z,15.87
2019-04-29T14:32:01.222Z,16.20
2019-04-29T14:34:45.699Z,15.33
2019-04-29T14:37:21.329Z,15.27
2019-04-29T14:39:38.799Z,14.67
2019-04-29T14:42:06.373Z,15.73
2019-04-29T14:44:34.237Z,14.93
2019-04-29T14:47:01.705Z,14.70
2019-04-29T14:49:29.148Z,15.10
2019-04-29T14:51:54.714Z,14.43
2019-04-29T14:54:20.593Z,14.47
2019-04-29T14:56:46.148Z,13.67
2019-04-29T14:59:11.722Z,14.60
2019-04-29T15:01:39.582Z,14.30
2019-04-29T15:04:17.855Z,13.70
2019-04-29T15:06:35.969Z,13.67
2019-04-29T15:09:01.772Z,12.53
2019-04-29T15:11:33.841Z,12.07
2019-04-29T15:14:05.712Z,12.40
2019-04-29T15:16:35.007Z,12.57
2019-04-29T15:19:19.627Z,11.33
2019-04-29T15:21:47.844Z,12.50
2019-04-29T15:24:13.711Z,11.57
2019-04-29T15:26:39.342Z,10.80
2019-04-29T15:29:04.954Z,12.80
2019-04-29T15:31:30.549Z,10.77
2019-04-29T15:33:56.074Z,11.47
2019-04-29T15:36:21.611Z,12.47
2019-04-29T15:39:01.491Z,10.90
2019-04-29T15:41:14.633Z,10.47
2019-04-29T15:43:46.981Z,11.17
2019-04-29T15:46:11.308Z,10.60
2019-04-29T15:48:41.942Z,11.20
2019-04-29T15:51:13.866Z,11.10
2019-04-29T15:53:37.850Z,10.57
2019-04-29T15:56:06.833Z,10.73
2019-04-29T15:58:31.334Z,13.90
2019-04-29T16:01:11.739Z,11.53
2019-04-29T16:03:27.380Z,12.10
2019-04-29T16:06:20.712Z,12.33
2019-04-29T16:08:47.997Z,11.77
2019-04-29T16:11:29.013Z,13.07
2019-04-29T16:14:09.242Z,12.00
2019-04-29T16:16:29.193Z,12.80
2019-04-29T16:18:54.827Z,11.53
2019-04-29T16:21:20.541Z,12.23
2019-04-29T16:23:57.703Z,11.63
2019-04-29T16:26:25.023Z,12.63
2019-04-29T16:28:52.977Z,11.67
2019-04-29T16:31:18.521Z,11.60
2019-04-29T16:33:47.594Z,11.13
2019-04-29T16:36:11.744Z,10.83
2019-04-29T16:38:37.346Z,10.23
2019-04-29T16:41:04.947Z,10.83
2019-04-29T16:43:41.188Z,10.87
2019-04-29T16:46:08.641Z,11.33
2019-04-29T16:48:34.388Z,9.70
2019-04-29T16:50:59.976Z,10.60
2019-04-29T16:53:25.657Z,9.73
2019-04-29T16:55:51.348Z,9.50
2019-04-29T16:58:18.438Z,9.20
2019-04-29T17:00:46.513Z,8.60
2019-04-29T17:03:13.315Z,9.63
2019-04-29T17:05:39.290Z,8.97
2019-04-29T17:08:09.493Z,8.00
2019-04-29T17:10:38.922Z,9.30
2019-04-29T17:13:09.198Z,9.93
2019-04-29T17:15:32.164Z,10.10
2019-04-29T17:17:57.748Z,9.87
2019-04-29T17:20:23.502Z,7.53
2019-04-29T17:22:49.269Z,8.50
2019-04-29T17:25:16.967Z,8.13
2019-04-29T17:27:56.536Z,7.40
2019-04-29T17:30:30.415Z,7.77
2019-04-29T17:33:26.343Z,7.93
2019-04-29T17:35:47.682Z,7.50
2019-04-29T17:38:11.901Z,6.30
2019-04-29T17:40:50.505Z,6.93
2019-04-29T17:43:27.222Z,5.90
2019-04-29T17:46:00.643Z,6.10
2019-04-29T17:48:31.068Z,6.20
2019-04-29T17:50:59.013Z,6.17
2019-04-29T17:53:32.656Z,5.97
2019-04-29T17:56:27.001Z,5.50
2019-04-29T17:58:58.396Z,5.80
2019-04-29T18:01:32.112Z,5.30
2019-04-29T18:04:20.119Z,5.30
2019-04-29T18:06:50.056Z,6.23
2019-04-29T18:09:29.592Z,6.07
2019-04-29T18:11:57.584Z,5.83
2019-04-29T18:14:22.897Z,6.23
2019-04-29T18:16:48.748Z,6.13
2019-04-29T18:19:22.402Z,5.67
2019-04-29T18:22:07.171Z,4.93
2019-04-29T18:24:44.937Z,5.33
2019-04-29T18:27:36.998Z,4.60
2019-04-29T18:30:03.169Z,4.90
2019-04-29T18:32:35.537Z,4.90
2019-04-29T18:34:57.308Z,4.93
2019-04-29T18:37:24.883Z,5.40
2019-04-29T18:39:50.824Z,4.90
2019-04-29T18:42:16.404Z,4.60
2019-04-29T18:44:54.104Z,4.80
2019-04-29T18:47:20.037Z,5.00
2019-04-29T18:49:39.076Z,5.43
2019-04-29T18:52:07.528Z,5.13
2019-04-29T18:54:33.032Z,4.83
2019-04-29T18:56:58.623Z,6.10
2019-04-29T18:59:30.715Z,6.10
2019-04-29T19:01:52.211Z,5.17
2019-04-29T19:04:19.830Z,4.97
2019-04-29T19:06:45.494Z,4.70
2019-04-29T19:09:17.990Z,4.50
2019-04-29T19:11:39.372Z,4.00
2019-04-29T19:14:05.290Z,4.10
2019-04-29T19:16:30.894Z,4.20
2019-04-29T19:19:01.417Z,3.60
2019-04-29T19:21:30.407Z,5.10
2019-04-29T19:23:52.685Z,4.60
2019-04-29T19:26:22.351Z,4.40
2019-04-29T19:28:47.316Z,4.00
2019-04-29T19:31:15.127Z,4.13
2019-04-29T19:33:40.723Z,4.30
2019-04-29T19:36:08.831Z,4.20
2019-04-29T19:38:35.199Z,4.10
2019-04-29T19:41:01.817Z,4.30
2019-04-29T19:43:27.422Z,4.10
2019-04-29T19:45:53.118Z,4.17
2019-04-29T19:48:22.475Z,5.43
2019-04-29T19:50:51.674Z,5.33
2019-04-29T19:53:19.585Z,4.53
2019-04-29T19:55:45.735Z,4.10
2019-04-29T19:58:13.994Z,4.50
2019-04-29T20:00:40.428Z,3.80
2019-04-29T20:03:20.559Z,4.60
2019-04-29T20:05:40.779Z,4.23
2019-04-29T20:08:07.599Z,5.17
2019-04-29T20:10:44.334Z,8.90
2019-04-29T20:13:01.414Z,5.03
2019-04-29T20:15:32.568Z,4.30
2019-04-29T20:18:07.766Z,4.57
2019-04-29T20:20:46.243Z,4.43
2019-04-29T20:23:12.402Z,4.13
2019-04-29T20:25:39.009Z,4.20
2019-04-29T20:28:08.117Z,5.00
2019-04-29T20:30:34.518Z,4.80
2019-04-29T20:33:01.597Z,4.77
2019-04-29T20:35:27.486Z,4.70
2019-04-29T20:37:56.667Z,4.37
2019-04-29T20:40:21.199Z,3.97
2019-04-29T20:42:49.229Z,3.90
2019-04-29T20:45:15.439Z,4.00
2019-04-29T20:47:42.206Z,4.03
2019-04-29T20:50:13.471Z,4.57
2019-04-29T20:52:42.124Z,4.67
2019-04-29T20:55:09.334Z,4.70
2019-04-29T20:57:35.952Z,4.37
2019-04-29T21:00:02.158Z,4.33
2019-04-29T21:02:33.751Z,5.17
2019-04-29T21:04:58.281Z,4.73
2019-04-29T21:07:25.664Z,4.97
2019-04-29T21:09:51.536Z,7.10
2019-04-29T21:12:22.018Z,5.80
2019-04-29T21:14:57.795Z,4.70
2019-04-29T21:17:29.406Z,5.60
2019-04-29T21:19:53.573Z,4.07
2019-04-29T21:22:23.446Z,4.80
2019-04-29T21:24:49.495Z,4.33
2019-04-29T21:27:15.900Z,4.60
2019-04-29T21:29:41.592Z,4.67
2019-04-29T21:32:07.248Z,4.37
2019-04-29T21:34:38.610Z,4.60
2019-04-29T21:37:16.268Z,4.57
2019-04-29T21:39:55.411Z,4.27
2019-04-29T21:42:29.758Z,4.50
2019-04-29T21:44:53.496Z,5.27
2019-04-29T21:47:20.538Z,4.83
2019-04-29T21:49:49.818Z,4.40
2019-04-29T21:52:15.388Z,4.77
2019-04-29T21:54:44.509Z,4.53
2019-04-29T21:57:08.782Z,4.57
2019-04-29T21:59:35.766Z,5.03
2019-04-29T22:02:01.594Z,5.30
2019-04-29T22:04:27.359Z,4.70
2019-04-29T22:06:53.019Z,4.40
2019-04-29T22:09:18.704Z,4.50
2019-04-29T22:11:44.730Z,4.33
2019-04-29T22:14:14.126Z,5.27
2019-04-29T22:16:40.016Z,5.47
2019-04-29T22:19:05.580Z,5.00
2019-04-29T22:21:32.412Z,4.83
2019-04-29T22:23:58.035Z,4.83
2019-04-29T22:26:26.771Z,5.27
2019-04-29T22:28:53.237Z,4.70
2019-04-29T22:31:19.009Z,5.00
2019-04-29T22:33:45.807Z,4.93
2019-04-29T22:36:14.768Z,5.13
2019-04-29T22:38:43.569Z,4.37
2019-04-29T22:41:11.869Z,5.00
2019-04-29T22:43:40.320Z,5.00
2019-04-29T22:46:09.520Z,5.10
2019-04-29T22:48:34.862Z,5.17
2019-04-29T22:51:00.631Z,6.53
2019-04-29T22:53:26.181Z,5.73
2019-04-29T22:55:51.870Z,4.93
2019-04-29T22:58:17.478Z,5.63
2019-04-29T23:00:43.104Z,6.87
2019-04-29T23:03:08.639Z,6.53
2019-04-29T23:05:35.670Z,6.00
2019-04-29T23:08:01.704Z,5.83
2019-04-29T23:10:28.042Z,5.40
2019-04-29T23:12:57.250Z,5.13
2019-04-29T23:15:23.527Z,5.20
2019-04-29T23:17:50.803Z,5.00
2019-04-29T23:20:28.866Z,5.37
2019-04-29T23:23:11.367Z,4.50
2019-04-29T23:25:55.654Z,5.00
2019-04-29T23:28:22.534Z,5.10
2019-04-29T23:30:52.212Z,5.83
2019-04-29T23:33:22.704Z,4.70
2019-04-29T23:35:44.796Z,5.00
2019-04-29T23:38:10.612Z,5.00
2019-04-29T23:40:36.515Z,5.10
2019-04-29T23:43:02.040Z,5.67
2019-04-29T23:45:27.707Z,6.30
2019-04-29T23:47:53.247Z,7.10
2019-04-29T23:50:20.072Z,7.93
2019-04-29T23:52:47.945Z,8.13
2019-04-29T23:55:13.370Z,7.47
2019-04-29T23:57:43.526Z,8.97
